Time;durP1;ratioP1;P1;durP2;ratioP2;P2;SDS_P1;SDS_P2;PMS_P1;PMS_P2;Temp;Humidity;BMP_temperature;BMP_pressure;BME280_temperature;BME280_humidity;BME280_pressure;Samples;Min_cycle;Max_cycle;Signal;HPM_P1;HPM_P2
2022/10/27 00:00:39;;;;;;;7.72;3.50;;;12.20;99.90;;;;;;5047398;28;20037;-78
2022/10/27 00:03:05;;;;;;;11.88;4.13;;;12.20;99.90;;;;;;5034348;28;20410;-79
2022/10/27 00:05:30;;;;;;;7.75;3.80;;;12.30;99.90;;;;;;5034841;28;20041;-79
2022/10/27 00:07:56;;;;;;;11.75;4.00;;;12.30;99.90;;;;;;5051117;28;20044;-79
2022/10/27 00:10:21;;;;;;;11.13;4.10;;;12.20;99.90;;;;;;5047684;28;20048;-79
2022/10/27 00:12:47;;;;;;;10.82;4.40;;;12.30;99.90;;;;;;5031948;28;20052;-79
2022/10/27 00:15:13;;;;;;;7.35;3.63;;;12.30;99.90;;;;;;5049929;28;20029;-79
2022/10/27 00:17:39;;;;;;;8.57;3.80;;;12.30;99.90;;;;;;5051246;28;20422;-79
2022/10/27 00:20:06;;;;;;;8.80;3.65;;;12.30;99.90;;;;;;5049878;28;20099;-79
2022/10/27 00:22:32;;;;;;;9.50;3.90;;;12.30;99.90;;;;;;5051395;28;20590;-79
2022/10/27 00:24:57;;;;;;;11.70;4.30;;;12.30;99.90;;;;;;5049092;28;20036;-79
2022/10/27 00:27:23;;;;;;;9.50;3.90;;;12.30;99.90;;;;;;5034836;28;20036;-79
2022/10/27 00:29:48;;;;;;;9.48;3.92;;;12.30;99.90;;;;;;5044674;28;20045;-79
2022/10/27 00:32:14;;;;;;;10.05;4.10;;;12.30;99.90;;;;;;5050857;28;20124;-79
2022/10/27 00:34:39;;;;;;;10.40;3.80;;;12.30;99.90;;;;;;5044100;28;20449;-79
2022/10/27 00:37:05;;;;;;;9.93;4.30;;;12.30;99.90;;;;;;5049536;28;20033;-79
2022/10/27 00:39:30;;;;;;;9.63;4.00;;;12.30;99.90;;;;;;5051131;28;20093;-79
2022/10/27 00:41:57;;;;;;;11.18;4.40;;;12.30;99.90;;;;;;5050974;28;20045;-79
2022/10/27 00:44:41;;;;;;;7.95;4.18;;;12.30;99.90;;;;;;5049862;28;20037;-79
2022/10/27 00:47:12;;;;;;;;;;;12.30;99.90;;;;;;5037526;28;20550;-79
2022/10/27 00:49:44;;;;;;;10.27;4.95;;;12.30;99.90;;;;;;5047733;28;19923;-79
2022/10/27 00:52:26;;;;;;;10.50;4.53;;;12.30;99.90;;;;;;5045431;28;20518;-79
2022/10/27 00:54:56;;;;;;;11.60;5.38;;;12.30;99.90;;;;;;5050865;28;20037;-79
2022/10/27 00:57:22;;;;;;;11.45;5.35;;;12.30;99.90;;;;;;5050982;28;20037;-78
2022/10/27 00:59:48;;;;;;;11.90;5.50;;;12.30;99.90;;;;;;5049119;28;20041;-79
2022/10/27 01:02:14;;;;;;;12.00;5.43;;;12.30;99.90;;;;;;5050338;28;20367;-79
2022/10/27 01:04:46;;;;;;;9.50;5.57;;;12.30;99.90;;;;;;5050208;28;20424;-78
2022/10/27 01:07:15;;;;;;;11.00;5.88;;;12.30;99.90;;;;;;5049072;28;20025;-79
2022/10/27 01:09:42;;;;;;;13.52;5.57;;;12.30;99.90;;;;;;5051440;28;20094;-79
2022/10/27 01:12:07;;;;;;;10.50;5.47;;;12.30;99.90;;;;;;5054289;28;20037;-79
2022/10/27 01:14:33;;;;;;;13.60;6.10;;;12.20;99.90;;;;;;5053355;28;20124;-79
2022/10/27 01:17:09;;;;;;;13.35;5.93;;;12.20;99.90;;;;;;5051996;28;20044;-78
2022/10/27 01:19:46;;;;;;;12.55;6.50;;;12.30;99.90;;;;;;5051171;28;20057;-78
2022/10/27 01:22:17;;;;;;;14.75;6.80;;;12.40;99.90;;;;;;5049452;28;20048;-79
2022/10/27 01:24:57;;;;;;;13.10;6.43;;;12.40;99.90;;;;;;5053186;28;20445;-79
2022/10/27 01:28:00;;;;;;;11.52;6.07;;;12.40;99.90;;;;;;5032211;28;20143;-79
2022/10/27 01:30:29;;;;;;;9.68;6.05;;;12.40;99.90;;;;;;5052243;28;20052;-79
2022/10/27 01:33:17;;;;;;;12.93;6.72;;;12.40;99.90;;;;;;5026947;28;20045;-79
2022/10/27 01:36:12;;;;;;;16.25;6.72;;;12.40;99.90;;;;;;5049538;28;20041;-79
2022/10/27 01:38:47;;;;;;;;;;;12.40;99.90;;;;;;5054031;28;20044;-79
2022/10/27 01:41:28;;;;;;;16.27;6.43;;;12.50;99.90;;;;;;5052981;28;19917;-80
2022/10/27 01:43:58;;;;;;;16.35;6.47;;;12.50;99.90;;;;;;5021417;28;20041;-78
2022/10/27 01:46:25;;;;;;;11.20;6.88;;;12.50;99.90;;;;;;5053188;28;20042;-79
2022/10/27 01:48:50;;;;;;;15.02;7.03;;;12.60;99.90;;;;;;5053587;28;20041;-79
2022/10/27 01:51:16;;;;;;;16.17;7.20;;;12.60;99.90;;;;;;5053946;28;20459;-79
2022/10/27 01:53:45;;;;;;;14.65;7.25;;;12.60;99.90;;;;;;5051014;28;20038;-79
2022/10/27 01:56:48;;;;;;;15.40;7.82;;;12.60;99.90;;;;;;5053728;28;20037;-78
2022/10/27 01:59:40;;;;;;;12.30;7.20;;;12.60;99.90;;;;;;5052839;28;20514;-79
2022/10/27 02:02:27;;;;;;;15.32;8.00;;;12.70;99.90;;;;;;5035699;28;20072;-79
2022/10/27 02:05:09;;;;;;;23.58;8.70;;;12.60;99.90;;;;;;5053734;28;20499;-79
2022/10/27 02:08:07;;;;;;;11.90;8.18;;;12.70;99.90;;;;;;5052241;28;20036;-79
2022/10/27 02:11:02;;;;;;;16.55;8.50;;;12.70;99.90;;;;;;5028227;28;20041;-79
2022/10/27 02:13:30;;;;;;;13.57;8.38;;;12.70;99.90;;;;;;5049355;28;20691;-79
2022/10/27 02:16:00;;;;;;;13.98;8.93;;;12.60;99.90;;;;;;5053775;28;20410;-79
2022/10/27 02:18:31;;;;;;;16.67;8.65;;;12.70;99.90;;;;;;5052775;28;20498;-79
2022/10/27 02:21:00;;;;;;;15.70;9.30;;;12.70;99.90;;;;;;5044593;28;20072;-79
2022/10/27 02:23:26;;;;;;;11.75;8.43;;;12.70;99.90;;;;;;5053407;28;20059;-77
2022/10/27 02:26:19;;;;;;;13.65;8.30;;;12.60;99.90;;;;;;5050288;28;20041;-79
2022/10/27 02:29:02;;;;;;;16.10;8.70;;;12.70;99.90;;;;;;5028307;28;20033;-79
2022/10/27 02:31:33;;;;;;;17.05;8.65;;;12.60;99.90;;;;;;5036971;28;20112;-80
2022/10/27 02:33:59;;;;;;;14.43;8.57;;;12.60;99.90;;;;;;5053804;28;20049;-79
2022/10/27 02:36:26;;;;;;;13.85;8.25;;;12.60;99.90;;;;;;5048780;28;20409;-80
2022/10/27 02:38:51;;;;;;;16.80;8.73;;;12.60;99.90;;;;;;5036474;28;20037;-80
2022/10/27 02:41:17;;;;;;;16.38;8.30;;;12.70;99.90;;;;;;5049337;28;20090;-78
2022/10/27 02:43:42;;;;;;;17.42;8.70;;;12.60;99.90;;;;;;5052375;28;20064;-79
2022/10/27 02:46:08;;;;;;;12.75;7.90;;;12.60;99.90;;;;;;5044746;28;20036;-80
2022/10/27 02:48:33;;;;;;;11.35;8.07;;;12.60;99.90;;;;;;5036622;28;20041;-79
2022/10/27 02:50:59;;;;;;;13.35;8.02;;;12.60;99.90;;;;;;5052343;28;20040;-78
2022/10/27 02:53:24;;;;;;;12.02;8.85;;;12.60;99.90;;;;;;5053274;28;20048;-79
2022/10/27 02:55:50;;;;;;;15.63;9.15;;;12.60;99.90;;;;;;5053080;28;20041;-79
2022/10/27 02:58:16;;;;;;;18.38;9.63;;;12.50;99.90;;;;;;5050511;28;20410;-79
2022/10/27 03:00:41;;;;;;;18.15;8.68;;;12.60;99.90;;;;;;5052522;28;20083;-78
2022/10/27 03:03:08;;;;;;;14.73;8.30;;;12.60;99.90;;;;;;5052728;28;20105;-80
2022/10/27 03:05:33;;;;;;;12.98;8.50;;;12.60;99.90;;;;;;5052037;28;20091;-79
2022/10/27 03:07:59;;;;;;;15.18;8.82;;;12.60;99.90;;;;;;5052849;28;20043;-79
2022/10/27 03:10:25;;;;;;;14.05;8.82;;;12.60;99.90;;;;;;5052774;28;20041;-79
2022/10/27 03:12:50;;;;;;;13.10;8.60;;;12.50;99.90;;;;;;5052963;28;20041;-80
2022/10/27 03:15:16;;;;;;;12.93;8.00;;;12.50;99.90;;;;;;5050210;28;20052;-79
2022/10/27 03:17:45;;;;;;;17.15;9.00;;;12.50;99.90;;;;;;5052821;28;20033;-79
2022/10/27 03:20:12;;;;;;;13.60;8.63;;;12.40;99.90;;;;;;5052930;28;20052;-79
2022/10/27 03:22:38;;;;;;;13.30;8.63;;;12.40;99.90;;;;;;5050241;28;20124;-79
2022/10/27 03:25:04;;;;;;;16.25;9.15;;;12.50;99.90;;;;;;5051846;28;20041;-79
2022/10/27 03:27:29;;;;;;;14.43;9.43;;;12.50;99.90;;;;;;5051406;28;20044;-79
2022/10/27 03:29:55;;;;;;;12.30;8.90;;;12.50;99.90;;;;;;5052737;28;20044;-79
2022/10/27 03:32:20;;;;;;;21.88;9.98;;;12.50;99.90;;;;;;5051398;28;20515;-79
2022/10/27 03:34:46;;;;;;;13.70;8.85;;;12.60;99.90;;;;;;5051437;28;20078;-79
2022/10/27 03:37:11;;;;;;;13.55;8.63;;;12.60;99.90;;;;;;5054139;28;20047;-79
2022/10/27 03:39:37;;;;;;;16.80;9.25;;;12.60;99.90;;;;;;5052395;28;20040;-80
2022/10/27 03:42:02;;;;;;;18.27;9.25;;;12.60;99.90;;;;;;5050345;28;21677;-78
2022/10/27 03:44:28;;;;;;;18.00;9.57;;;12.60;99.90;;;;;;5052534;28;20029;-80
2022/10/27 03:46:53;;;;;;;13.63;9.30;;;12.50;99.90;;;;;;5035826;28;20029;-78
2022/10/27 03:49:19;;;;;;;13.80;8.70;;;12.60;99.90;;;;;;5052310;28;20033;-78
2022/10/27 03:51:44;;;;;;;14.10;9.02;;;12.60;99.90;;;;;;5052390;28;20048;-79
2022/10/27 03:54:10;;;;;;;17.10;9.90;;;12.60;99.90;;;;;;5047972;28;20155;-79
2022/10/27 03:56:35;;;;;;;16.48;9.80;;;12.60;99.90;;;;;;5052503;28;20048;-79
2022/10/27 03:59:01;;;;;;;14.23;9.35;;;12.60;99.90;;;;;;5052551;28;20044;-77
2022/10/27 04:01:27;;;;;;;21.58;9.73;;;12.60;99.90;;;;;;5030993;28;20041;-78
2022/10/27 04:03:52;;;;;;;19.45;9.65;;;12.60;99.90;;;;;;5051721;28;20056;-78
2022/10/27 04:06:18;;;;;;;13.60;9.55;;;12.60;99.90;;;;;;5052126;28;20112;-78
2022/10/27 04:08:43;;;;;;;15.05;9.02;;;12.60;99.90;;;;;;5050656;28;20158;-78
2022/10/27 04:11:09;;;;;;;21.08;10.80;;;12.60;99.90;;;;;;5051884;28;20525;-78
2022/10/27 04:13:35;;;;;;;17.67;10.25;;;12.60;99.90;;;;;;5051720;28;20462;-79
2022/10/27 04:16:01;;;;;;;17.20;9.57;;;12.60;99.90;;;;;;5051098;28;20521;-78
2022/10/27 04:18:26;;;;;;;16.52;9.35;;;12.60;99.90;;;;;;5052092;28;20119;-76
2022/10/27 04:20:52;;;;;;;14.90;10.00;;;12.60;99.90;;;;;;5051930;28;20068;-77
2022/10/27 04:23:17;;;;;;;15.98;9.68;;;12.60;99.90;;;;;;5052349;28;20044;-79
2022/10/27 04:25:43;;;;;;;16.27;10.23;;;12.60;99.90;;;;;;5052481;28;20033;-79
2022/10/27 04:28:09;;;;;;;18.48;10.32;;;12.60;99.90;;;;;;5052143;28;20040;-78
2022/10/27 04:30:35;;;;;;;20.42;10.60;;;12.50;99.90;;;;;;5050847;28;20033;-79
2022/10/27 04:33:01;;;;;;;17.33;10.55;;;12.60;99.90;;;;;;5052259;28;20044;-79
2022/10/27 04:35:27;;;;;;;21.58;11.32;;;12.50;99.90;;;;;;5049299;28;20052;-78
2022/10/27 04:37:56;;;;;;;18.85;10.82;;;12.60;99.90;;;;;;5049333;28;20037;-78
2022/10/27 04:40:22;;;;;;;17.42;11.07;;;12.60;99.90;;;;;;5036030;28;20132;-78
2022/10/27 04:42:48;;;;;;;15.68;10.77;;;12.60;99.90;;;;;;5034940;28;20045;-79
2022/10/27 04:45:14;;;;;;;19.13;11.13;;;12.60;99.90;;;;;;5053920;28;20040;-78
2022/10/27 04:47:40;;;;;;;18.88;11.35;;;12.60;99.90;;;;;;5056475;28;20041;-79
2022/10/27 04:50:06;;;;;;;18.65;10.02;;;12.60;99.90;;;;;;5049507;28;20190;-77
2022/10/27 04:52:31;;;;;;;18.58;11.45;;;12.60;99.90;;;;;;5056458;28;20045;-78
2022/10/27 04:54:57;;;;;;;21.70;10.90;;;12.50;99.90;;;;;;5055631;28;20060;-78
2022/10/27 04:57:23;;;;;;;21.63;10.77;;;12.50;99.90;;;;;;5050384;28;20079;-78
2022/10/27 04:59:48;;;;;;;21.95;10.52;;;12.50;99.90;;;;;;5032379;28;20047;-79
2022/10/27 05:02:14;;;;;;;17.80;10.77;;;12.40;99.90;;;;;;5051774;28;20049;-78
2022/10/27 05:04:39;;;;;;;18.58;11.00;;;12.40;99.90;;;;;;5045666;28;20410;-78
2022/10/27 05:07:05;;;;;;;15.05;10.88;;;12.40;99.90;;;;;;5038408;28;20037;-79
2022/10/27 05:09:30;;;;;;;17.40;10.45;;;12.40;99.90;;;;;;5054149;28;20039;-78
2022/10/27 05:11:56;;;;;;;17.17;10.88;;;12.40;99.90;;;;;;5053010;28;20517;-79
2022/10/27 05:14:21;;;;;;;18.45;10.82;;;12.40;99.90;;;;;;5053656;28;20041;-78
2022/10/27 05:16:47;;;;;;;19.70;10.80;;;12.40;99.90;;;;;;5052343;28;20045;-78
2022/10/27 05:19:12;;;;;;;17.95;10.57;;;12.40;99.90;;;;;;5042712;28;20123;-78
2022/10/27 05:21:38;;;;;;;17.38;10.10;;;12.40;99.90;;;;;;5037216;28;20101;-77
2022/10/27 05:24:04;;;;;;;17.13;10.60;;;12.40;99.90;;;;;;5056745;28;20047;-79
2022/10/27 05:26:29;;;;;;;18.50;11.02;;;12.40;99.90;;;;;;5056915;28;20540;-79
2022/10/27 05:28:55;;;;;;;19.83;10.75;;;12.40;99.90;;;;;;5055700;28;20093;-79
2022/10/27 05:31:20;;;;;;;20.33;10.82;;;12.40;99.90;;;;;;5055228;28;20033;-78
2022/10/27 05:33:46;;;;;;;21.42;10.80;;;12.40;99.90;;;;;;5053386;28;20041;-78
2022/10/27 05:36:11;;;;;;;17.75;10.77;;;12.40;99.90;;;;;;5053769;28;20040;-76
2022/10/27 05:38:38;;;;;;;18.73;10.50;;;12.40;99.90;;;;;;5051172;28;20040;-78
2022/10/27 05:41:04;;;;;;;18.90;10.73;;;12.50;99.90;;;;;;5055139;28;20064;-79
2022/10/27 05:43:30;;;;;;;20.38;10.40;;;12.50;99.90;;;;;;5055494;28;20045;-78
2022/10/27 05:45:55;;;;;;;15.60;10.25;;;12.40;99.90;;;;;;5053774;28;20123;-78
2022/10/27 05:48:21;;;;;;;23.85;10.55;;;12.50;99.90;;;;;;5048611;28;20112;-78
2022/10/27 05:50:52;;;;;;;19.20;11.25;;;12.50;99.90;;;;;;5028058;28;20117;-79
2022/10/27 05:53:18;;;;;;;21.15;10.55;;;12.50;99.90;;;;;;5051485;28;20539;-78
2022/10/27 05:55:44;;;;;;;15.82;10.43;;;12.50;99.90;;;;;;5053373;28;20502;-77
2022/10/27 05:58:10;;;;;;;17.65;10.15;;;12.50;99.90;;;;;;5049436;28;20045;-79
2022/10/27 06:00:37;;;;;;;20.38;10.43;;;12.60;99.90;;;;;;5056248;28;20049;-79
2022/10/27 06:03:05;;;;;;;16.83;10.27;;;12.60;99.90;;;;;;5056430;28;20033;-78
2022/10/27 06:05:34;;;;;;;18.38;10.63;;;12.60;99.90;;;;;;5054202;28;20033;-78
2022/10/27 06:07:59;;;;;;;15.38;10.55;;;12.60;99.90;;;;;;5054428;28;20029;-78
2022/10/27 06:10:25;;;;;;;17.75;10.75;;;12.60;99.90;;;;;;5054938;28;20037;-80
2022/10/27 06:12:51;;;;;;;18.42;11.00;;;12.50;99.90;;;;;;5054922;28;20036;-79
2022/10/27 06:15:16;;;;;;;19.05;10.52;;;12.50;99.90;;;;;;5055538;28;20196;-79
2022/10/27 06:17:42;;;;;;;15.65;10.85;;;12.50;99.90;;;;;;5057099;28;20045;-79
2022/10/27 06:20:08;;;;;;;16.35;11.43;;;12.50;99.90;;;;;;5055605;28;20036;-79
2022/10/27 06:22:33;;;;;;;15.90;11.73;;;12.50;99.90;;;;;;5040045;28;20086;-79
2022/10/27 06:24:59;;;;;;;17.77;11.32;;;12.40;99.90;;;;;;5055319;28;20037;-80
2022/10/27 06:27:24;;;;;;;17.67;11.98;;;12.50;99.90;;;;;;5057211;28;20072;-80
2022/10/27 06:29:50;;;;;;;17.02;11.65;;;12.50;99.90;;;;;;5055415;28;20036;-79
2022/10/27 06:32:15;;;;;;;22.35;12.18;;;12.50;99.90;;;;;;5057632;28;20490;-79
2022/10/27 06:34:41;;;;;;;18.42;11.52;;;12.50;99.90;;;;;;5057320;28;20124;-79
2022/10/27 06:37:06;;;;;;;20.85;12.70;;;12.50;99.90;;;;;;5046768;28;20157;-79
2022/10/27 06:39:32;;;;;;;21.65;12.02;;;12.50;99.90;;;;;;5036102;28;20029;-79
2022/10/27 06:41:58;;;;;;;19.25;12.60;;;12.50;99.90;;;;;;5059623;28;20095;-79
2022/10/27 06:44:24;;;;;;;19.23;12.35;;;12.50;99.90;;;;;;5055329;28;20048;-79
2022/10/27 06:46:50;;;;;;;19.33;12.32;;;12.60;99.90;;;;;;5054446;28;20076;-80
2022/10/27 06:49:16;;;;;;;19.48;11.77;;;12.60;99.90;;;;;;5054909;28;20033;-79
2022/10/27 06:51:41;;;;;;;18.83;11.93;;;12.60;99.90;;;;;;5053671;28;20051;-79
2022/10/27 06:54:07;;;;;;;16.33;11.77;;;12.60;99.90;;;;;;5048621;28;20037;-78
2022/10/27 06:56:33;;;;;;;18.02;11.65;;;12.70;99.90;;;;;;5017443;28;20518;-80
2022/10/27 06:58:59;;;;;;;18.05;12.05;;;12.70;99.90;;;;;;5033614;28;20038;-81
2022/10/27 07:01:25;;;;;;;17.48;11.30;;;12.70;99.90;;;;;;5033711;28;20586;-80
2022/10/27 07:03:50;;;;;;;19.67;10.95;;;12.80;99.90;;;;;;5032948;28;20037;-79
2022/10/27 07:06:16;;;;;;;18.40;11.60;;;12.80;99.90;;;;;;5032867;28;20081;-79
2022/10/27 07:08:41;;;;;;;18.63;11.10;;;12.80;99.90;;;;;;5032243;28;20080;-79
2022/10/27 07:11:08;;;;;;;16.08;10.95;;;12.90;99.90;;;;;;5032269;28;20121;-80
2022/10/27 07:13:34;;;;;;;17.10;11.07;;;12.90;99.90;;;;;;5041654;28;20041;-78
2022/10/27 07:15:59;;;;;;;17.88;10.38;;;13.00;99.90;;;;;;5051408;28;20045;-78
2022/10/27 07:18:25;;;;;;;15.73;10.30;;;13.10;99.90;;;;;;5052789;28;20417;-79
2022/10/27 07:20:52;;;;;;;15.80;10.15;;;13.10;99.90;;;;;;5052236;28;20041;-79
2022/10/27 07:23:18;;;;;;;14.45;9.65;;;13.20;99.90;;;;;;5053073;28;20053;-78
2022/10/27 07:25:47;;;;;;;15.95;10.13;;;13.20;99.90;;;;;;5053817;28;20028;-78
2022/10/27 07:28:13;;;;;;;14.05;9.75;;;13.20;99.90;;;;;;5038131;28;20215;-79
2022/10/27 07:30:43;;;;;;;15.15;9.95;;;13.30;99.90;;;;;;5053300;28;20124;-79
2022/10/27 07:33:09;;;;;;;16.88;10.27;;;13.30;99.90;;;;;;5053023;28;20068;-79
2022/10/27 07:35:34;;;;;;;18.65;10.02;;;13.30;99.90;;;;;;5053765;28;20055;-78
2022/10/27 07:38:00;;;;;;;17.02;10.50;;;13.30;99.90;;;;;;5053810;28;20048;-81
2022/10/27 07:40:26;;;;;;;14.57;9.57;;;13.40;99.90;;;;;;5055285;28;20498;-79
2022/10/27 07:42:55;;;;;;;15.48;8.85;;;13.40;99.90;;;;;;5053474;28;20045;-79
2022/10/27 07:45:23;;;;;;;14.35;9.80;;;13.50;99.90;;;;;;5055629;28;20041;-78
2022/10/27 07:47:50;;;;;;;15.20;9.20;;;13.50;99.90;;;;;;5053583;28;20037;-79
2022/10/27 07:50:21;;;;;;;15.55;9.40;;;13.50;99.90;;;;;;5036854;28;20498;-79
2022/10/27 07:52:49;;;;;;;13.15;8.68;;;13.60;99.90;;;;;;5053575;28;20047;-78
2022/10/27 07:55:16;;;;;;;14.52;8.30;;;13.60;99.90;;;;;;5037112;28;20090;-79
2022/10/27 07:57:43;;;;;;;15.90;8.40;;;13.60;99.90;;;;;;5053716;28;20104;-79
2022/10/27 08:00:11;;;;;;;14.85;8.98;;;13.70;99.90;;;;;;5054002;28;20072;-79
2022/10/27 08:02:37;;;;;;;17.83;9.30;;;13.70;99.90;;;;;;5053560;28;20045;-79
2022/10/27 08:05:02;;;;;;;15.90;8.73;;;13.80;99.90;;;;;;5052962;28;20175;-79
2022/10/27 08:07:28;;;;;;;12.90;7.80;;;13.90;99.90;;;;;;5052462;28;20040;-79
2022/10/27 08:09:54;;;;;;;15.95;9.07;;;13.90;99.90;;;;;;5035513;28;20033;-79
2022/10/27 08:12:19;;;;;;;15.63;8.63;;;14.00;99.90;;;;;;5035250;28;20448;-78
2022/10/27 08:14:45;;;;;;;13.40;8.23;;;14.10;99.90;;;;;;5052880;28;20048;-79
2022/10/27 08:17:12;;;;;;;13.40;7.93;;;14.10;99.90;;;;;;5053012;28;20040;-78
2022/10/27 08:19:38;;;;;;;11.57;8.02;;;14.20;99.90;;;;;;5051932;28;20449;-79
2022/10/27 08:22:03;;;;;;;12.55;7.35;;;14.30;99.90;;;;;;5052961;28;20033;-78
2022/10/27 08:24:29;;;;;;;14.02;7.78;;;14.30;99.90;;;;;;5052487;28;20037;-79
2022/10/27 08:26:54;;;;;;;13.27;7.25;;;14.30;99.90;;;;;;5051924;28;20033;-79
2022/10/27 08:29:20;;;;;;;13.38;7.05;;;14.30;99.90;;;;;;5051986;28;20037;-79
2022/10/27 08:31:45;;;;;;;12.85;7.55;;;14.30;99.90;;;;;;5051550;28;20044;-78
2022/10/27 08:34:11;;;;;;;12.38;7.13;;;14.30;99.90;;;;;;5052511;28;20096;-79
2022/10/27 08:36:39;;;;;;;15.18;7.75;;;14.30;99.90;;;;;;5052664;28;20041;-78
2022/10/27 08:39:07;;;;;;;15.93;6.97;;;14.30;99.90;;;;;;5035903;28;20046;-79
2022/10/27 08:41:49;;;;;;;12.57;7.28;;;14.30;99.90;;;;;;5041788;28;20527;-79
2022/10/27 08:44:28;;;;;;;11.25;6.25;;;14.40;99.90;;;;;;5053274;28;20085;-79
2022/10/27 08:46:57;;;;;;;11.50;6.28;;;14.50;99.90;;;;;;5053382;28;20037;-78
2022/10/27 08:49:43;;;;;;;10.02;6.03;;;14.60;99.90;;;;;;5053446;28;20430;-79
2022/10/27 08:52:11;;;;;;;11.25;6.18;;;14.70;99.90;;;;;;5054299;28;20095;-78
2022/10/27 08:54:39;;;;;;;9.52;5.85;;;14.80;99.90;;;;;;5037324;28;20356;-78
2022/10/27 08:57:05;;;;;;;11.00;5.45;;;15.00;99.90;;;;;;5052770;28;20048;-80
2022/10/27 08:59:33;;;;;;;10.68;5.97;;;15.10;99.90;;;;;;5053474;28;20037;-80
2022/10/27 09:02:08;;;;;;;10.32;5.80;;;15.20;99.90;;;;;;5054817;28;20064;-78
2022/10/27 09:04:56;;;;;;;11.38;5.82;;;15.30;99.90;;;;;;5053310;28;20128;-77
2022/10/27 09:07:35;;;;;;;12.40;5.47;;;15.50;99.90;;;;;;5036149;28;20098;-79
2022/10/27 09:10:11;;;;;;;10.40;6.05;;;15.60;99.90;;;;;;5052694;28;20041;-80
2022/10/27 09:13:09;;;;;;;12.40;5.72;;;15.70;99.90;;;;;;5053505;28;20502;-80
2022/10/27 09:15:46;;;;;;;8.77;5.40;;;15.70;99.90;;;;;;5041589;28;20091;-79
2022/10/27 09:18:24;;;;;;;10.60;5.70;;;15.80;99.90;;;;;;5052195;28;20572;-79
2022/10/27 09:21:02;;;;;;;13.20;5.30;;;15.90;99.90;;;;;;5052328;28;20080;-79
2022/10/27 09:23:33;;;;;;;8.43;5.25;;;15.90;99.90;;;;;;5051418;28;20116;-79
2022/10/27 09:25:58;;;;;;;7.57;5.00;;;15.90;99.90;;;;;;5035031;28;20037;-79
2022/10/27 09:28:36;;;;;;;8.82;5.10;;;15.90;99.90;;;;;;5051325;28;20033;-78
2022/10/27 09:31:03;;;;;;;10.73;4.75;;;16.00;99.90;;;;;;5053128;28;20049;-78
2022/10/27 09:33:33;;;;;;;9.25;4.90;;;16.00;99.90;;;;;;5037780;28;20049;-80
2022/10/27 09:36:10;;;;;;;9.25;4.15;;;16.10;99.90;;;;;;5054996;28;20510;-78
2022/10/27 09:38:36;;;;;;;8.68;4.90;;;16.20;99.90;;;;;;5055084;28;20590;-80
2022/10/27 09:41:02;;;;;;;9.02;4.53;;;16.20;99.90;;;;;;5054948;28;20082;-80
2022/10/27 09:43:27;;;;;;;8.75;4.40;;;16.30;99.90;;;;;;5055646;28;20473;-79
2022/10/27 09:46:33;;;;;;;10.20;4.78;;;16.30;99.90;;;;;;5055356;28;20075;-78
2022/10/27 09:49:04;;;;;;;9.85;4.53;;;16.40;99.90;;;;;;4997549;28;20068;-79
2022/10/27 09:51:54;;;;;;;7.35;4.10;;;16.40;99.90;;;;;;5044420;28;20056;-78
2022/10/27 09:54:28;;;;;;;6.47;4.10;;;16.40;99.90;;;;;;5038929;28;20409;-80
2022/10/27 09:57:00;;;;;;;8.60;4.43;;;16.50;99.90;;;;;;5055389;28;20087;-79
2022/10/27 09:59:25;;;;;;;12.63;4.35;;;16.50;99.90;;;;;;5038359;28;20037;-78
2022/10/27 10:01:56;;;;;;;9.13;4.45;;;16.60;99.90;;;;;;5054937;28;20041;-78
2022/10/27 10:04:27;;;;;;;10.27;4.30;;;16.60;99.90;;;;;;5055177;28;20037;-79
2022/10/27 10:07:02;;;;;;;7.90;4.07;;;16.60;99.90;;;;;;5057199;28;20045;-79
2022/10/27 10:09:32;;;;;;;9.85;3.85;;;16.60;99.90;;;;;;5054747;28;20035;-78
2022/10/27 10:12:11;;;;;;;7.30;3.70;;;16.70;99.90;;;;;;5054248;28;20033;-79
2022/10/27 10:14:37;;;;;;;12.13;3.78;;;16.70;99.90;;;;;;5054242;28;20550;-79
2022/10/27 10:17:02;;;;;;;4.90;3.28;;;16.70;99.90;;;;;;5053558;28;20147;-79
2022/10/27 10:19:28;;;;;;;5.60;3.22;;;16.90;99.90;;;;;;5053691;28;20041;-79
2022/10/27 10:21:59;;;;;;;10.68;3.30;;;17.00;99.90;;;;;;5053530;28;20048;-77
2022/10/27 10:24:33;;;;;;;9.13;3.50;;;17.10;99.90;;;;;;5054064;28;20457;-80
2022/10/27 10:27:01;;;;;;;10.60;3.13;;;17.20;99.90;;;;;;5054229;28;20072;-78
2022/10/27 10:29:38;;;;;;;5.90;2.95;;;17.20;99.90;;;;;;5037773;28;20399;-79
2022/10/27 10:32:13;;;;;;;7.18;2.80;;;17.30;99.90;;;;;;5053939;28;20037;-79
2022/10/27 10:34:41;;;;;;;5.18;2.63;;;17.30;99.90;;;;;;5054121;28;20048;-78
2022/10/27 10:37:41;;;;;;;5.72;2.63;;;17.40;99.90;;;;;;5054314;28;20051;-78
2022/10/27 10:40:13;;;;;;;8.63;2.70;;;17.40;99.90;;;;;;5020639;28;20036;-78
2022/10/27 10:42:43;;;;;;;3.85;2.40;;;17.40;99.90;;;;;;5052512;28;20052;-78
2022/10/27 10:45:17;;;;;;;4.72;1.95;;;17.50;99.90;;;;;;5053597;28;20048;-78
2022/10/27 10:47:49;;;;;;;4.28;1.95;;;17.60;99.90;;;;;;5053267;28;20047;-79
2022/10/27 10:50:15;;;;;;;4.57;2.15;;;17.60;99.90;;;;;;5053809;28;20098;-78
2022/10/27 10:52:51;;;;;;;6.45;2.45;;;17.70;99.90;;;;;;5052343;28;20037;-79
2022/10/27 10:55:22;;;;;;;4.07;2.08;;;17.70;99.90;;;;;;5051562;28;20134;-79
2022/10/27 10:57:52;;;;;;;5.93;2.25;;;17.80;99.90;;;;;;5053008;28;20503;-79
2022/10/27 11:00:19;;;;;;;5.65;2.10;;;17.90;99.90;;;;;;5053073;28;20037;-78
2022/10/27 11:03:02;;;;;;;5.78;2.20;;;18.00;99.90;;;;;;5052679;28;20040;-80
2022/10/27 11:05:33;;;;;;;4.97;2.10;;;18.10;99.90;;;;;;5053142;28;20033;-77
2022/10/27 11:07:59;;;;;;;4.75;2.10;;;18.20;99.90;;;;;;5036154;28;20041;-78
2022/10/27 11:10:34;;;;;;;6.97;2.00;;;18.20;99.90;;;;;;5035655;28;20037;-79
2022/10/27 11:13:17;;;;;;;6.15;1.92;;;18.20;99.90;;;;;;5052470;28;20406;-79
2022/10/27 11:15:45;;;;;;;5.35;1.75;;;18.30;99.90;;;;;;5052618;28;20041;-78
2022/10/27 11:18:30;;;;;;;7.25;1.80;;;18.40;99.90;;;;;;5051547;28;20086;-77
2022/10/27 11:21:03;;;;;;;6.75;1.85;;;18.40;99.90;;;;;;5051447;28;20071;-77
2022/10/27 11:23:44;;;;;;;5.70;1.85;;;18.50;99.90;;;;;;5052049;28;20051;-78
2022/10/27 11:26:11;;;;;;;8.63;1.58;;;18.50;99.90;;;;;;5047291;28;20037;-78
2022/10/27 11:29:16;;;;;;;5.50;1.77;;;18.70;99.90;;;;;;5050947;28;20043;-77
2022/10/27 11:32:03;;;;;;;4.90;1.35;;;18.70;99.90;;;;;;5028383;28;20049;-78
2022/10/27 11:34:51;;;;;;;3.22;1.30;;;18.90;99.90;;;;;;5051480;28;20422;-79
2022/10/27 11:37:26;;;;;;;5.80;1.50;;;19.00;99.90;;;;;;5051954;28;20546;-79
2022/10/27 11:40:25;;;;;;;4.22;1.50;;;19.00;99.90;;;;;;5051225;28;20048;-78
2022/10/27 11:43:02;;;;;;;4.25;1.30;;;19.00;99.90;;;;;;5051462;28;20053;-79
2022/10/27 11:45:59;;;;;;;4.38;1.20;;;19.10;99.90;;;;;;5051940;28;20028;-78
2022/10/27 11:48:38;;;;;;;3.78;1.10;;;19.10;99.90;;;;;;5034989;28;20043;-77
2022/10/27 11:51:19;;;;;;;4.22;1.30;;;19.10;99.90;;;;;;5050766;28;20495;-79
2022/10/27 11:53:45;;;;;;;2.88;1.30;;;19.10;99.90;;;;;;5050147;28;20045;-77
2022/10/27 11:56:28;;;;;;;3.67;1.40;;;19.10;99.90;;;;;;5034883;28;20041;-78
2022/10/27 11:59:04;;;;;;;3.03;1.50;;;19.10;99.90;;;;;;5048666;28;20051;-77
2022/10/27 12:01:32;;;;;;;5.57;1.55;;;19.20;99.90;;;;;;5052011;28;20041;-78
2022/10/27 12:04:31;;;;;;;4.43;1.50;;;19.30;99.90;;;;;;5050978;28;20422;-77
2022/10/27 12:07:33;;;;;;;7.40;1.40;;;19.30;99.90;;;;;;5025858;28;20425;-77
2022/10/27 12:10:24;;;;;;;5.28;1.10;;;19.40;99.90;;;;;;5021802;28;20041;-77
2022/10/27 12:13:02;;;;;;;4.18;1.40;;;19.40;99.90;;;;;;5049362;28;20094;-77
2022/10/27 12:15:39;;;;;;;3.05;1.20;;;19.40;99.90;;;;;;5050057;28;20455;-78
2022/10/27 12:18:32;;;;;;;4.18;1.13;;;19.50;99.90;;;;;;5049724;28;20041;-78
2022/10/27 12:21:10;;;;;;;3.03;1.08;;;19.50;99.90;;;;;;5034793;28;20040;-77
2022/10/27 12:23:46;;;;;;;4.75;1.30;;;19.60;99.90;;;;;;5046987;28;20037;-78
2022/10/27 12:26:52;;;;;;;3.70;1.17;;;19.60;99.90;;;;;;5039392;28;20382;-77
2022/10/27 12:29:19;;;;;;;6.78;1.60;;;19.60;99.90;;;;;;5050698;28;20036;-77
2022/10/27 12:31:56;;;;;;;6.97;1.48;;;19.60;99.90;;;;;;5050883;28;20048;-80
2022/10/27 12:34:28;;;;;;;4.75;1.35;;;19.70;99.90;;;;;;5050451;28;20041;-77
2022/10/27 12:37:02;;;;;;;3.15;1.20;;;19.60;99.90;;;;;;5033578;28;20037;-78
2022/10/27 12:39:44;;;;;;;3.65;1.17;;;19.60;99.90;;;;;;5042764;28;20036;-77
2022/10/27 12:42:29;;;;;;;3.58;1.60;;;19.60;99.90;;;;;;5049605;28;20036;-78
2022/10/27 12:45:38;;;;;;;3.50;1.30;;;19.70;99.90;;;;;;5049565;28;20041;-78
2022/10/27 12:48:25;;;;;;;4.22;1.10;;;19.80;99.90;;;;;;5049507;28;20037;-77
2022/10/27 12:51:24;;;;;;;4.10;1.20;;;19.80;99.90;;;;;;5049961;28;20037;-75
2022/10/27 12:53:57;;;;;;;3.90;1.50;;;19.90;99.90;;;;;;5050447;28;20040;-78
2022/10/27 12:56:31;;;;;;;3.63;1.08;;;19.90;99.90;;;;;;5049997;28;20037;-79